createdAt,value
2018-06-25T00:00:49.318Z,15.01
2018-06-25T00:01:49.324Z,14.98
2018-06-25T00:02:49.235Z,14.98
2018-06-25T00:03:49.231Z,14.92
2018-06-25T00:04:49.172Z,14.95
2018-06-25T00:05:49.133Z,14.98
2018-06-25T00:06:49.125Z,14.94
2018-06-25T00:07:49.053Z,14.96
2018-06-25T00:08:49.028Z,15.02
2018-06-25T00:09:48.984Z,14.92
2018-06-25T00:10:48.960Z,14.95
2018-06-25T00:11:48.959Z,14.91
2018-06-25T00:12:48.899Z,14.96
2018-06-25T00:13:48.834Z,14.94
2018-06-25T00:14:48.795Z,14.89
2018-06-25T00:15:48.738Z,14.92
2018-06-25T00:16:48.708Z,14.92
2018-06-25T00:17:48.720Z,14.88
2018-06-25T00:18:48.624Z,14.91
2018-06-25T00:19:48.626Z,14.88
2018-06-25T00:20:48.568Z,14.95
2018-06-25T00:21:48.522Z,14.91
2018-06-25T00:22:48.542Z,14.91
2018-06-25T00:23:48.434Z,14.91
2018-06-25T00:24:48.409Z,14.89
2018-06-25T00:25:48.390Z,14.92
2018-06-25T00:26:48.323Z,14.95
2018-06-25T00:27:48.277Z,14.96
2018-06-25T00:28:48.282Z,14.92
2018-06-25T00:29:48.208Z,14.88
2018-06-25T00:30:48.175Z,14.95
2018-06-25T00:31:48.153Z,15.02
2018-06-25T00:32:48.108Z,15.01
2018-06-25T00:33:48.093Z,14.96
2018-06-25T00:34:48.038Z,14.98
2018-06-25T00:35:47.994Z,14.92
2018-06-25T00:36:47.928Z,14.98
2018-06-25T00:37:47.904Z,15.01
2018-06-25T00:38:47.889Z,14.94
2018-06-25T00:39:47.816Z,14.95
2018-06-25T00:40:47.777Z,14.98
2018-06-25T00:41:47.755Z,15.02
2018-06-25T00:42:47.709Z,14.92
2018-06-25T00:43:57.368Z,14.98
2018-06-25T00:44:47.644Z,14.91
2018-06-25T00:45:47.589Z,14.96
2018-06-25T00:46:47.597Z,15.02
2018-06-25T00:47:47.504Z,14.98
2018-06-25T00:48:47.475Z,14.94
2018-06-25T00:49:47.473Z,15.02
2018-06-25T00:50:47.405Z,14.91
2018-06-25T00:51:47.353Z,14.89
2018-06-25T00:52:47.323Z,14.92
2018-06-25T00:53:47.288Z,14.96
2018-06-25T00:54:47.292Z,14.89
2018-06-25T00:55:47.219Z,14.98
2018-06-25T00:56:47.171Z,14.96
2018-06-25T00:57:47.143Z,14.91
2018-06-25T00:58:47.100Z,14.96
2018-06-25T00:59:47.074Z,14.98
2018-06-25T01:00:47.009Z,14.98
2018-06-25T01:01:46.975Z,14.94
2018-06-25T01:02:46.961Z,14.95
2018-06-25T01:03:46.907Z,15.02
2018-06-25T01:04:46.852Z,15.06
2018-06-25T01:05:46.836Z,15.02
2018-06-25T01:06:46.776Z,14.95
2018-06-25T01:07:56.935Z,14.98
2018-06-25T01:08:46.704Z,14.95
2018-06-25T01:09:46.673Z,14.98
2018-06-25T01:10:46.637Z,14.89
2018-06-25T01:11:46.611Z,14.88
2018-06-25T01:12:46.548Z,14.98
2018-06-25T01:13:46.532Z,14.95
2018-06-25T01:14:46.486Z,14.94
2018-06-25T01:15:46.460Z,15.01
2018-06-25T01:16:46.386Z,14.98
2018-06-25T01:17:46.368Z,14.96
2018-06-25T01:18:46.337Z,14.92
2018-06-25T01:19:46.314Z,14.96
2018-06-25T01:20:46.243Z,14.98
2018-06-25T01:21:46.234Z,14.91
2018-06-25T01:22:46.178Z,14.95
2018-06-25T01:23:46.132Z,14.96
2018-06-25T01:24:46.102Z,14.91
2018-06-25T01:25:46.048Z,14.89
2018-06-25T01:26:46.038Z,14.88
2018-06-25T01:27:45.961Z,14.89
2018-06-25T01:28:45.940Z,14.96
2018-06-25T01:29:45.912Z,14.92
2018-06-25T01:30:45.868Z,15.01
2018-06-25T01:31:45.847Z,14.95
2018-06-25T01:32:45.826Z,14.92
2018-06-25T01:33:45.764Z,14.92
2018-06-25T01:34:45.724Z,14.98
2018-06-25T01:35:45.700Z,14.98
2018-06-25T01:36:45.629Z,14.98
2018-06-25T01:37:45.607Z,14.91
2018-06-25T01:38:45.566Z,14.98
2018-06-25T01:39:45.527Z,14.92
2018-06-25T01:40:45.456Z,14.92
2018-06-25T01:41:45.452Z,14.91
2018-06-25T01:42:45.428Z,14.95
2018-06-25T01:43:45.363Z,15.03
2018-06-25T01:44:45.328Z,14.96
2018-06-25T01:45:45.282Z,14.88
2018-06-25T01:46:45.241Z,14.96
2018-06-25T01:47:45.235Z,15.02
2018-06-25T01:48:45.159Z,14.98
2018-06-25T01:49:45.136Z,14.92
2018-06-25T01:50:45.086Z,14.95
2018-06-25T01:51:45.065Z,14.95
2018-06-25T01:52:45.057Z,14.92
2018-06-25T01:53:44.973Z,14.80
2018-06-25T01:54:44.931Z,14.88
2018-06-25T01:55:44.905Z,14.80
2018-06-25T01:56:44.853Z,14.88
2018-06-25T01:57:44.811Z,14.86
2018-06-25T01:58:44.807Z,14.84
2018-06-25T01:59:44.724Z,14.77
2018-06-25T02:00:44.742Z,14.84
2018-06-25T02:01:44.647Z,14.80
2018-06-25T02:02:44.625Z,14.77
2018-06-25T02:03:44.612Z,14.81
2018-06-25T02:04:44.547Z,14.77
2018-06-25T02:05:44.499Z,14.77
2018-06-25T02:06:44.472Z,14.73
2018-06-25T02:07:44.434Z,14.73
2018-06-25T02:08:44.418Z,14.70
2018-06-25T02:09:44.349Z,14.84
2018-06-25T02:10:44.333Z,14.73
2018-06-25T02:11:44.325Z,14.73
2018-06-25T02:12:44.241Z,14.69
2018-06-25T02:13:44.207Z,14.70
2018-06-25T02:14:44.204Z,14.68
2018-06-25T02:15:44.141Z,14.64
2018-06-25T02:16:44.117Z,14.68
2018-06-25T02:17:44.045Z,14.68
2018-06-25T02:18:44.043Z,14.72
2018-06-25T02:19:54.979Z,14.69
2018-06-25T02:20:43.923Z,14.70
2018-06-25T02:21:43.934Z,14.68
2018-06-25T02:22:43.913Z,14.70
2018-06-25T02:23:43.828Z,14.70
2018-06-25T02:24:43.788Z,14.68
2018-06-25T02:25:43.728Z,14.77
2018-06-25T02:26:43.696Z,14.64
2018-06-25T02:27:43.655Z,14.70
2018-06-25T02:28:43.622Z,14.72
2018-06-25T02:29:43.609Z,14.70
2018-06-25T02:30:43.550Z,14.65
2018-06-25T02:31:43.515Z,14.77
2018-06-25T02:32:43.448Z,14.72
2018-06-25T02:33:43.437Z,14.64
2018-06-25T02:34:43.417Z,14.80
2018-06-25T02:35:43.392Z,14.72
2018-06-25T02:36:43.344Z,14.65
2018-06-25T02:37:43.309Z,14.78
2018-06-25T02:38:43.324Z,14.68
2018-06-25T02:39:43.200Z,14.64
2018-06-25T02:40:43.182Z,14.69
2018-06-25T02:41:43.110Z,14.78
2018-06-25T02:42:43.098Z,14.62
2018-06-25T02:43:43.033Z,14.70
2018-06-25T02:44:42.988Z,14.73
2018-06-25T02:45:43.007Z,14.72
2018-06-25T02:46:42.938Z,14.70
2018-06-25T02:47:42.901Z,14.70
2018-06-25T02:48:42.853Z,14.69
2018-06-25T02:49:42.835Z,14.78
2018-06-25T02:50:42.788Z,14.68
2018-06-25T02:51:42.749Z,14.75
2018-06-25T02:52:42.698Z,14.75
2018-06-25T02:53:42.667Z,14.75
2018-06-25T02:54:42.642Z,14.75
2018-06-25T02:55:42.563Z,14.75
2018-06-25T02:56:42.550Z,14.70
2018-06-25T02:57:42.500Z,14.77
2018-06-25T02:58:42.461Z,14.73
2018-06-25T02:59:42.415Z,14.69
2018-06-25T03:00:42.376Z,14.75
2018-06-25T03:01:42.366Z,14.75
2018-06-25T03:02:42.298Z,14.73
2018-06-25T03:03:42.267Z,14.65
2018-06-25T03:04:42.234Z,14.69
2018-06-25T03:05:42.188Z,14.65
2018-06-25T03:06:42.186Z,14.68
2018-06-25T03:07:42.113Z,14.65
2018-06-25T03:08:42.070Z,14.57
2018-06-25T03:09:42.018Z,14.64
2018-06-25T03:10:41.988Z,14.58
2018-06-25T03:11:41.953Z,14.62
2018-06-25T03:12:41.964Z,14.65
2018-06-25T03:13:41.869Z,14.61
2018-06-25T03:14:41.833Z,14.62
2018-06-25T03:15:41.806Z,14.61
2018-06-25T03:16:41.758Z,14.64
2018-06-25T03:17:41.761Z,14.61
2018-06-25T03:18:41.679Z,14.60
2018-06-25T03:19:41.677Z,14.55
2018-06-25T03:20:41.610Z,14.60
2018-06-25T03:21:41.581Z,14.58
2018-06-25T03:22:41.554Z,14.61
2018-06-25T03:23:41.489Z,14.62
2018-06-25T03:24:41.453Z,14.62
2018-06-25T03:25:41.418Z,14.62
2018-06-25T03:26:41.396Z,14.61
2018-06-25T03:27:41.346Z,14.62
2018-06-25T03:28:41.328Z,14.69
2018-06-25T03:29:41.274Z,14.62
2018-06-25T03:30:41.236Z,14.61
2018-06-25T03:31:53.556Z,14.57
2018-06-25T03:32:41.134Z,14.70
2018-06-25T03:33:41.124Z,14.69
2018-06-25T03:34:41.065Z,14.60
2018-06-25T03:35:41.017Z,14.54
2018-06-25T03:36:40.985Z,14.65
2018-06-25T03:37:40.948Z,14.68
2018-06-25T03:38:40.941Z,14.62
2018-06-25T03:39:40.857Z,14.61
2018-06-25T03:40:40.819Z,14.61
2018-06-25T03:41:40.827Z,14.58
2018-06-25T03:42:40.766Z,14.64
2018-06-25T03:43:40.736Z,14.60
2018-06-25T03:44:40.705Z,14.68
2018-06-25T03:45:40.631Z,14.64
2018-06-25T03:46:40.605Z,14.65
2018-06-25T03:47:40.566Z,14.68
2018-06-25T03:48:40.511Z,14.64
2018-06-25T03:49:40.528Z,14.62
2018-06-25T03:50:40.453Z,14.65
2018-06-25T03:51:40.445Z,14.61
2018-06-25T03:52:40.349Z,14.64
2018-06-25T03:53:40.318Z,14.65
2018-06-25T03:54:40.318Z,14.65
2018-06-25T03:55:40.241Z,14.62
2018-06-25T03:56:40.222Z,14.62
2018-06-25T03:57:40.164Z,14.69
2018-06-25T03:58:40.124Z,14.70
2018-06-25T03:59:40.179Z,14.72
2018-06-25T04:00:40.059Z,14.62
2018-06-25T04:01:40.012Z,14.72
2018-06-25T04:02:39.981Z,14.68
2018-06-25T04:03:39.989Z,14.73
2018-06-25T04:04:39.904Z,14.64
2018-06-25T04:05:39.914Z,14.70
2018-06-25T04:06:39.814Z,14.64
2018-06-25T04:07:39.811Z,14.68
2018-06-25T04:08:39.738Z,14.73
2018-06-25T04:09:39.727Z,14.64
2018-06-25T04:10:39.720Z,14.62
2018-06-25T04:11:39.641Z,14.64
2018-06-25T04:12:39.600Z,14.72
2018-06-25T04:13:39.566Z,14.65
2018-06-25T04:14:39.522Z,14.69
2018-06-25T04:15:39.585Z,14.72
2018-06-25T04:16:39.419Z,14.77
2018-06-25T04:17:39.391Z,14.81
2018-06-25T04:18:39.384Z,14.77
2018-06-25T04:19:39.315Z,14.83
2018-06-25T04:20:39.288Z,14.84
2018-06-25T04:21:39.275Z,14.89
2018-06-25T04:22:39.213Z,14.99
2018-06-25T04:23:39.208Z,14.94
2018-06-25T04:24:39.127Z,14.91
2018-06-25T04:25:39.077Z,14.96
2018-06-25T04:26:39.076Z,14.94
2018-06-25T04:27:39.000Z,14.95
2018-06-25T04:28:38.970Z,15.02
2018-06-25T04:29:38.931Z,14.94
2018-06-25T04:30:38.942Z,14.94
2018-06-25T04:31:38.890Z,15.07
2018-06-25T04:32:38.820Z,14.98
2018-06-25T04:33:38.791Z,15.03
2018-06-25T04:34:38.772Z,15.03
2018-06-25T04:35:38.701Z,15.10
2018-06-25T04:36:38.691Z,15.10
2018-06-25T04:37:38.641Z,15.11
2018-06-25T04:38:38.575Z,15.11
2018-06-25T04:39:38.548Z,15.09
2018-06-25T04:40:38.527Z,15.13
2018-06-25T04:41:38.472Z,15.17
2018-06-25T04:42:38.471Z,15.19
2018-06-25T04:43:38.403Z,15.11
2018-06-25T04:44:38.361Z,15.07
2018-06-25T04:45:38.323Z,15.13
2018-06-25T04:46:38.298Z,15.20
2018-06-25T04:47:38.258Z,15.14
2018-06-25T04:48:38.200Z,15.23
2018-06-25T04:49:38.194Z,15.20
2018-06-25T04:50:38.188Z,15.29
2018-06-25T04:51:38.109Z,15.29
2018-06-25T04:52:38.086Z,15.36
2018-06-25T04:53:37.997Z,15.38
2018-06-25T04:54:38.004Z,15.51
2018-06-25T04:55:37.930Z,15.41
2018-06-25T04:56:37.889Z,15.36
2018-06-25T04:57:37.838Z,15.32
2018-06-25T04:58:37.834Z,15.32
2018-06-25T04:59:37.779Z,15.35
2018-06-25T05:00:37.737Z,15.41
2018-06-25T05:01:37.693Z,15.34
2018-06-25T05:02:37.670Z,15.38
2018-06-25T05:03:37.681Z,15.38
2018-06-25T05:04:37.587Z,15.39
2018-06-25T05:05:37.580Z,15.50
2018-06-25T05:06:37.503Z,15.50
2018-06-25T05:07:37.471Z,15.49
2018-06-25T05:08:37.463Z,15.60
2018-06-25T05:09:37.382Z,15.62
2018-06-25T05:10:37.375Z,15.60
2018-06-25T05:11:37.353Z,15.59
2018-06-25T05:12:37.329Z,15.56
2018-06-25T05:13:37.238Z,15.62
2018-06-25T05:14:37.227Z,15.67
2018-06-25T05:15:37.177Z,15.57
2018-06-25T05:16:37.128Z,15.64
2018-06-25T05:17:37.083Z,15.64
2018-06-25T05:18:37.063Z,15.65
2018-06-25T05:19:37.026Z,15.67
2018-06-25T05:20:36.975Z,15.72
2018-06-25T05:21:36.936Z,15.74
2018-06-25T05:22:36.929Z,15.72
2018-06-25T05:23:36.931Z,15.74
2018-06-25T05:24:36.867Z,15.65
2018-06-25T05:25:36.785Z,15.62
2018-06-25T05:26:36.760Z,15.69
2018-06-25T05:27:36.703Z,15.75
2018-06-25T05:28:36.671Z,15.74
2018-06-25T05:29:36.682Z,15.76
2018-06-25T05:30:47.173Z,15.74
2018-06-25T05:31:36.565Z,15.72
2018-06-25T05:32:36.525Z,15.68
2018-06-25T05:33:36.467Z,15.76
2018-06-25T05:34:36.465Z,15.65
2018-06-25T05:35:36.418Z,15.68
2018-06-25T05:36:36.371Z,15.62
2018-06-25T05:37:36.340Z,15.67
2018-06-25T05:38:36.283Z,15.64
2018-06-25T05:39:36.257Z,15.69
2018-06-25T05:40:36.228Z,15.59
2018-06-25T05:41:36.187Z,15.65
2018-06-25T05:42:36.150Z,15.71
2018-06-25T05:43:36.108Z,15.71
2018-06-25T05:44:36.068Z,15.69
2018-06-25T05:45:36.058Z,15.75
2018-06-25T05:46:35.996Z,15.74
2018-06-25T05:47:35.962Z,15.75
2018-06-25T05:48:35.931Z,15.65
2018-06-25T05:49:35.881Z,15.67
2018-06-25T05:50:35.854Z,15.71
2018-06-25T05:51:35.823Z,15.69
2018-06-25T05:52:35.780Z,15.75
2018-06-25T05:53:35.749Z,15.71
2018-06-25T05:54:47.053Z,15.67
2018-06-25T05:55:35.661Z,15.72
2018-06-25T05:56:35.640Z,15.90
2018-06-25T05:57:35.856Z,15.90
2018-06-25T05:58:35.519Z,15.93
2018-06-25T05:59:35.491Z,16.20
2018-06-25T06:00:35.449Z,16.25
2018-06-25T06:01:35.453Z,16.25
2018-06-25T06:02:35.379Z,16.23
2018-06-25T06:03:35.356Z,16.38
2018-06-25T06:04:35.313Z,16.49
2018-06-25T06:05:35.280Z,16.45
2018-06-25T06:06:35.265Z,16.49
2018-06-25T06:07:35.196Z,16.64
2018-06-25T06:08:35.155Z,16.67
2018-06-25T06:09:35.126Z,16.71
2018-06-25T06:10:35.082Z,16.81
2018-06-25T06:11:35.048Z,16.83
2018-06-25T06:12:35.028Z,16.98
2018-06-25T06:13:34.968Z,16.97
2018-06-25T06:14:34.924Z,17.03
2018-06-25T06:15:34.914Z,16.97
2018-06-25T06:16:34.849Z,17.03
2018-06-25T06:17:34.855Z,16.88
2018-06-25T06:18:34.785Z,16.68
2018-06-25T06:19:34.752Z,16.64
2018-06-25T06:20:34.730Z,16.52
2018-06-25T06:21:34.676Z,16.50
2018-06-25T06:22:34.669Z,16.52
2018-06-25T06:23:34.590Z,16.45
2018-06-25T06:24:34.571Z,16.43
2018-06-25T06:25:34.536Z,16.45
2018-06-25T06:26:34.503Z,16.50
2018-06-25T06:27:34.447Z,16.70
2018-06-25T06:28:34.458Z,16.75
2018-06-25T06:29:34.379Z,16.82
2018-06-25T06:30:34.333Z,16.86
2018-06-25T06:31:34.305Z,16.85
2018-06-25T06:32:34.278Z,16.86
2018-06-25T06:33:34.256Z,17.03
2018-06-25T06:34:34.200Z,17.00
2018-06-25T06:35:34.157Z,17.12
2018-06-25T06:36:34.126Z,17.16
2018-06-25T06:37:34.109Z,17.12
2018-06-25T06:38:34.077Z,17.16
2018-06-25T06:39:34.000Z,17.14
2018-06-25T06:40:33.965Z,17.21
2018-06-25T06:41:33.947Z,17.16
2018-06-25T06:42:33.887Z,17.16
2018-06-25T06:43:33.876Z,17.21
2018-06-25T06:44:33.827Z,17.30
2018-06-25T06:45:33.790Z,17.18
2018-06-25T06:46:33.766Z,17.14
2018-06-25T06:47:33.710Z,17.19
2018-06-25T06:48:33.686Z,17.28
2018-06-25T06:49:33.650Z,17.07
2018-06-25T06:50:33.609Z,17.03
2018-06-25T06:51:33.632Z,17.01
2018-06-25T06:52:33.518Z,17.06
2018-06-25T06:53:33.531Z,17.14
2018-06-25T06:54:33.478Z,17.16
2018-06-25T06:55:33.411Z,17.15
2018-06-25T06:56:33.372Z,17.11
2018-06-25T06:57:33.369Z,17.11
2018-06-25T06:58:33.304Z,17.12
2018-06-25T06:59:33.273Z,17.07
2018-06-25T07:00:33.252Z,17.00
2018-06-25T07:01:33.172Z,16.93
2018-06-25T07:02:33.157Z,17.00
2018-06-25T07:03:33.124Z,17.03
2018-06-25T07:04:33.107Z,17.01
2018-06-25T07:05:33.028Z,16.98
2018-06-25T07:06:32.990Z,16.97
2018-06-25T07:07:32.959Z,16.91
2018-06-25T07:08:32.941Z,16.75
2018-06-25T07:09:32.917Z,16.73
2018-06-25T07:10:32.840Z,16.82
2018-06-25T07:11:32.822Z,16.76
2018-06-25T07:12:32.787Z,16.86
2018-06-25T07:13:32.754Z,16.91
2018-06-25T07:14:32.727Z,16.86
2018-06-25T07:15:32.669Z,16.91
2018-06-25T07:16:32.637Z,16.97
2018-06-25T07:17:32.651Z,17.01
2018-06-25T07:18:32.557Z,17.03
2018-06-25T07:19:32.535Z,17.16
2018-06-25T07:20:32.513Z,17.06
2018-06-25T07:21:32.467Z,16.98
2018-06-25T07:22:32.413Z,16.97
2018-06-25T07:23:32.372Z,16.98
2018-06-25T07:24:32.352Z,16.97
2018-06-25T07:25:32.315Z,17.15
2018-06-25T07:26:32.259Z,17.19
2018-06-25T07:27:32.220Z,17.38
2018-06-25T07:28:32.202Z,17.18
2018-06-25T07:29:42.676Z,17.04
2018-06-25T07:30:32.230Z,16.97
2018-06-25T07:31:32.082Z,16.97
2018-06-25T07:32:32.029Z,16.97
2018-06-25T07:33:32.154Z,17.00
2018-06-25T07:34:31.958Z,17.01
2018-06-25T07:35:31.943Z,17.00
2018-06-25T07:36:31.909Z,16.86
2018-06-25T07:37:31.850Z,16.93
2018-06-25T07:38:31.833Z,17.08
2018-06-25T07:39:31.811Z,17.06
2018-06-25T07:40:31.730Z,17.16
2018-06-25T07:41:31.730Z,17.31
2018-06-25T07:42:31.650Z,17.40
2018-06-25T07:43:31.619Z,17.44
2018-06-25T07:44:31.603Z,17.56
2018-06-25T07:45:31.539Z,17.64
2018-06-25T07:46:31.555Z,17.62
2018-06-25T07:47:31.495Z,17.62
2018-06-25T07:48:31.430Z,17.63
2018-06-25T07:49:31.405Z,17.56
2018-06-25T07:50:31.377Z,17.55
2018-06-25T07:51:31.382Z,17.63
2018-06-25T07:52:41.811Z,17.74
2018-06-25T07:53:31.327Z,17.79
2018-06-25T07:54:31.219Z,17.92
2018-06-25T07:55:31.436Z,17.96
2018-06-25T07:56:31.158Z,17.92
2018-06-25T07:57:31.170Z,17.82
2018-06-25T07:58:31.069Z,17.81
2018-06-25T07:59:31.013Z,17.77
2018-06-25T08:00:30.993Z,17.74
2018-06-25T08:01:30.968Z,17.68
2018-06-25T08:02:30.944Z,17.63
2018-06-25T08:03:30.909Z,17.54
2018-06-25T08:04:30.856Z,17.55
2018-06-25T08:05:30.804Z,17.54
2018-06-25T08:06:30.761Z,17.54
2018-06-25T08:07:30.778Z,17.58
2018-06-25T08:08:30.706Z,17.56
2018-06-25T08:09:30.750Z,17.54
2018-06-25T08:10:30.639Z,17.54
2018-06-25T08:11:30.641Z,17.56
2018-06-25T08:12:30.606Z,17.63
2018-06-25T08:13:30.513Z,17.74
2018-06-25T08:14:30.524Z,17.75
2018-06-25T08:15:30.493Z,17.90
2018-06-25T08:16:40.758Z,17.90
2018-06-25T08:17:30.443Z,18.05
2018-06-25T08:18:30.377Z,18.08
2018-06-25T08:19:30.294Z,18.25
2018-06-25T08:20:30.718Z,18.25
2018-06-25T08:21:30.218Z,18.27
2018-06-25T08:22:30.189Z,18.36
2018-06-25T08:23:30.163Z,18.37
2018-06-25T08:24:30.151Z,18.45
2018-06-25T08:25:30.081Z,18.51
2018-06-25T08:26:30.070Z,18.62
2018-06-25T08:27:30.047Z,18.37
2018-06-25T08:28:30.026Z,18.27
2018-06-25T08:29:29.968Z,18.26
2018-06-25T08:30:29.907Z,18.23
2018-06-25T08:31:29.866Z,18.26
2018-06-25T08:32:29.826Z,18.18
2018-06-25T08:33:29.879Z,18.15
2018-06-25T08:34:29.818Z,18.12
2018-06-25T08:35:29.728Z,18.12
2018-06-25T08:36:29.678Z,18.07
2018-06-25T08:37:29.671Z,18.17
2018-06-25T08:38:29.645Z,18.17
2018-06-25T08:39:29.614Z,18.21
2018-06-25T08:40:29.546Z,18.18
2018-06-25T08:41:29.533Z,18.30
2018-06-25T08:42:29.459Z,18.36
2018-06-25T08:43:29.505Z,18.36
2018-06-25T08:44:29.429Z,18.25
2018-06-25T08:45:29.360Z,18.20
2018-06-25T08:46:29.334Z,18.32
2018-06-25T08:47:29.288Z,18.30
2018-06-25T08:48:29.276Z,18.35
2018-06-25T08:49:29.247Z,18.39
2018-06-25T08:50:29.170Z,18.42
2018-06-25T08:51:29.150Z,18.33
2018-06-25T08:52:29.143Z,18.37
2018-06-25T08:53:29.090Z,18.23
2018-06-25T08:54:29.053Z,18.21
2018-06-25T08:55:29.039Z,18.23
2018-06-25T08:56:28.976Z,18.23
2018-06-25T08:57:28.945Z,18.12
2018-06-25T08:58:28.904Z,18.15
2018-06-25T08:59:28.869Z,18.29
2018-06-25T09:00:28.853Z,18.25
2018-06-25T09:01:28.787Z,18.27
2018-06-25T09:02:28.765Z,18.21
2018-06-25T09:03:28.810Z,18.37
2018-06-25T09:04:28.758Z,18.48
2018-06-25T09:05:28.669Z,18.57
2018-06-25T09:06:28.630Z,18.57
2018-06-25T09:07:28.656Z,18.62
2018-06-25T09:08:28.544Z,18.62
2018-06-25T09:09:28.566Z,18.73
2018-06-25T09:10:28.496Z,18.81
2018-06-25T09:11:28.462Z,19.13
2018-06-25T09:12:28.440Z,19.28
2018-06-25T09:13:28.377Z,19.47
2018-06-25T09:14:28.337Z,19.55
2018-06-25T09:15:28.341Z,19.71
2018-06-25T09:16:28.273Z,19.71
2018-06-25T09:17:28.224Z,19.84
2018-06-25T09:18:28.190Z,19.96
2018-06-25T09:19:28.158Z,19.88
2018-06-25T09:20:28.115Z,19.83
2018-06-25T09:21:28.118Z,19.77
2018-06-25T09:22:28.044Z,19.68
2018-06-25T09:23:28.022Z,19.65
2018-06-25T09:24:27.980Z,19.74
2018-06-25T09:25:27.944Z,19.88
2018-06-25T09:26:27.942Z,20.03
2018-06-25T09:27:27.851Z,19.95
2018-06-25T09:28:27.836Z,20.26
2018-06-25T09:29:27.824Z,20.39
2018-06-25T09:30:27.764Z,20.42
2018-06-25T09:31:27.728Z,20.64
2018-06-25T09:32:27.742Z,20.70
2018-06-25T09:33:27.657Z,21.22
2018-06-25T09:34:27.612Z,21.25
2018-06-25T09:35:27.576Z,20.99
2018-06-25T09:36:27.548Z,20.58
2018-06-25T09:37:27.538Z,20.38
2018-06-25T09:38:27.494Z,20.28
2018-06-25T09:39:27.440Z,20.23
2018-06-25T09:40:27.440Z,20.36
2018-06-25T09:41:27.464Z,20.41
2018-06-25T09:42:27.405Z,20.28
2018-06-25T09:43:27.317Z,20.35
2018-06-25T09:44:27.274Z,20.70
2018-06-25T09:45:27.248Z,20.59
2018-06-25T09:46:27.225Z,20.72
2018-06-25T09:47:27.173Z,20.87
2018-06-25T09:48:27.188Z,21.25
2018-06-25T09:49:27.110Z,21.77
2018-06-25T09:50:27.089Z,22.37
2018-06-25T09:51:27.045Z,22.68
2018-06-25T09:52:27.040Z,22.58
2018-06-25T09:53:27.001Z,22.54
2018-06-25T09:54:26.953Z,22.15
2018-06-25T09:55:26.920Z,22.02
2018-06-25T09:56:26.885Z,22.06
2018-06-25T09:57:26.840Z,21.71
2018-06-25T09:58:26.852Z,21.72
2018-06-25T09:59:26.775Z,21.24
2018-06-25T10:00:26.761Z,21.07
2018-06-25T10:01:26.706Z,20.99
2018-06-25T10:02:26.681Z,20.97
2018-06-25T10:03:26.727Z,20.73
2018-06-25T10:04:26.641Z,20.66
2018-06-25T10:05:26.588Z,20.41
2018-06-25T10:06:26.553Z,20.31
2018-06-25T10:07:26.510Z,20.23
2018-06-25T10:08:26.476Z,20.21
2018-06-25T10:09:26.501Z,20.24
2018-06-25T10:10:26.489Z,20.38
2018-06-25T10:11:26.399Z,20.51
2018-06-25T10:12:26.361Z,20.50
2018-06-25T10:13:26.318Z,20.51
2018-06-25T10:14:26.329Z,20.39
2018-06-25T10:15:26.241Z,20.33
2018-06-25T10:16:37.187Z,20.31
2018-06-25T10:17:26.174Z,20.28
2018-06-25T10:18:26.255Z,20.17
2018-06-25T10:19:26.906Z,20.13
2018-06-25T10:20:26.118Z,20.17
2018-06-25T10:21:26.224Z,19.94
2018-06-25T10:22:26.059Z,19.94
2018-06-25T10:23:26.001Z,19.87
2018-06-25T10:24:25.970Z,19.81
2018-06-25T10:25:25.939Z,19.62
2018-06-25T10:26:37.383Z,19.58
2018-06-25T10:27:25.812Z,19.48
2018-06-25T10:28:25.829Z,19.44
2018-06-25T10:29:25.856Z,19.41
2018-06-25T10:30:25.755Z,19.43
2018-06-25T10:31:25.690Z,19.29
2018-06-25T10:32:25.697Z,19.28
2018-06-25T10:33:25.683Z,19.25
2018-06-25T10:34:25.585Z,19.18
2018-06-25T10:35:25.580Z,19.25
2018-06-25T10:36:25.529Z,19.46
2018-06-25T10:37:25.499Z,19.48
2018-06-25T10:38:25.462Z,19.59
2018-06-25T10:39:25.433Z,19.73
2018-06-25T10:40:35.279Z,19.74
2018-06-25T10:41:25.355Z,19.76
2018-06-25T10:42:25.365Z,19.68
2018-06-25T10:43:25.920Z,19.71
2018-06-25T10:44:25.267Z,19.59
2018-06-25T10:45:25.204Z,19.59
2018-06-25T10:46:25.153Z,19.56
2018-06-25T10:47:25.167Z,19.55
2018-06-25T10:48:25.095Z,19.39
2018-06-25T10:49:25.084Z,19.39
2018-06-25T10:50:25.052Z,19.55
2018-06-25T10:51:24.984Z,19.63
2018-06-25T10:52:24.957Z,19.73
2018-06-25T10:53:24.933Z,19.63
2018-06-25T10:54:24.943Z,19.84
2018-06-25T10:55:24.895Z,19.94
2018-06-25T10:56:24.824Z,20.08
2018-06-25T10:57:24.804Z,20.08
2018-06-25T10:58:24.746Z,20.32
2018-06-25T10:59:24.764Z,20.36
2018-06-25T11:00:24.695Z,20.61
2018-06-25T11:01:24.676Z,20.52
2018-06-25T11:02:24.606Z,20.77
2018-06-25T11:03:24.568Z,20.89
2018-06-25T11:04:24.541Z,20.77
2018-06-25T11:05:24.534Z,20.76
2018-06-25T11:06:24.473Z,20.72
2018-06-25T11:07:24.532Z,20.76
2018-06-25T11:08:24.392Z,20.73
2018-06-25T11:09:24.365Z,20.55
2018-06-25T11:10:24.327Z,20.59
2018-06-25T11:11:24.333Z,20.64
2018-06-25T11:12:24.251Z,20.72
2018-06-25T11:13:24.214Z,20.74
2018-06-25T11:14:24.233Z,20.58
2018-06-25T11:15:24.181Z,20.55
2018-06-25T11:16:24.126Z,20.64
2018-06-25T11:17:24.078Z,20.70
2018-06-25T11:18:24.084Z,20.77
2018-06-25T11:19:24.020Z,20.73
2018-06-25T11:20:24.038Z,20.88
2018-06-25T11:21:23.924Z,20.94
2018-06-25T11:22:23.940Z,21.03
2018-06-25T11:23:23.885Z,20.98
2018-06-25T11:24:23.839Z,21.17
2018-06-25T11:25:23.805Z,21.21
2018-06-25T11:26:23.768Z,21.12
2018-06-25T11:27:23.874Z,21.17
2018-06-25T11:28:23.703Z,21.25
2018-06-25T11:29:23.661Z,21.04
2018-06-25T11:30:23.626Z,21.13
2018-06-25T11:31:23.631Z,21.13
2018-06-25T11:32:23.588Z,21.04
2018-06-25T11:33:23.544Z,21.09
2018-06-25T11:34:23.483Z,21.01
2018-06-25T11:35:23.457Z,21.10
2018-06-25T11:36:23.477Z,21.04
2018-06-25T11:37:23.382Z,21.04
2018-06-25T11:38:23.411Z,20.97
2018-06-25T11:39:23.367Z,21.04
2018-06-25T11:40:23.294Z,20.94
2018-06-25T11:41:23.236Z,21.12
2018-06-25T11:42:23.217Z,21.12
2018-06-25T11:43:23.212Z,21.14
2018-06-25T11:44:23.175Z,21.28
2018-06-25T11:45:23.130Z,21.40
2018-06-25T11:46:23.076Z,21.46
2018-06-25T11:47:23.073Z,21.27
2018-06-25T11:48:23.046Z,21.38
2018-06-25T11:49:22.981Z,21.40
2018-06-25T11:50:22.952Z,21.32
2018-06-25T11:51:22.921Z,21.44
2018-06-25T11:52:33.416Z,21.32
2018-06-25T11:53:22.823Z,21.44
2018-06-25T11:54:22.899Z,21.40
2018-06-25T11:55:22.771Z,21.27
2018-06-25T11:56:22.740Z,21.35
2018-06-25T11:57:22.687Z,21.29
2018-06-25T11:58:22.659Z,21.40
2018-06-25T11:59:22.660Z,21.31
2018-06-25T12:00:22.602Z,21.40
2018-06-25T12:01:22.579Z,21.29
2018-06-25T12:02:22.561Z,21.34
2018-06-25T12:03:22.534Z,21.27
2018-06-25T12:04:22.497Z,21.24
2018-06-25T12:05:22.471Z,21.40
2018-06-25T12:06:22.384Z,21.47
2018-06-25T12:07:22.400Z,21.71
2018-06-25T12:08:22.328Z,21.71
2018-06-25T12:09:22.322Z,21.99
2018-06-25T12:10:22.258Z,22.10
2018-06-25T12:11:22.217Z,22.09
2018-06-25T12:12:22.197Z,22.15
2018-06-25T12:13:22.178Z,22.12
2018-06-25T12:14:22.212Z,22.27
2018-06-25T12:15:22.115Z,22.37
2018-06-25T12:16:22.056Z,22.42
2018-06-25T12:17:22.103Z,22.42
2018-06-25T12:18:22.016Z,22.17
2018-06-25T12:19:21.938Z,22.09
2018-06-25T12:20:21.932Z,22.12
2018-06-25T12:21:21.890Z,22.17
2018-06-25T12:22:21.886Z,22.31
2018-06-25T12:23:21.818Z,22.51
2018-06-25T12:24:21.779Z,22.72
2018-06-25T12:25:21.778Z,22.79
2018-06-25T12:26:21.739Z,22.62
2018-06-25T12:27:21.705Z,22.61
2018-06-25T12:28:21.651Z,22.35
2018-06-25T12:29:21.633Z,22.43
2018-06-25T12:30:21.618Z,22.37
2018-06-25T12:31:21.630Z,22.40
2018-06-25T12:32:21.522Z,22.35
2018-06-25T12:33:21.489Z,22.45
2018-06-25T12:34:21.458Z,22.43
2018-06-25T12:35:21.440Z,22.33
2018-06-25T12:36:21.413Z,22.61
2018-06-25T12:37:21.361Z,22.79
2018-06-25T12:38:21.337Z,23.10
2018-06-25T12:39:32.129Z,23.02
2018-06-25T12:40:21.492Z,23.05
2018-06-25T12:41:21.315Z,23.09
2018-06-25T12:42:21.657Z,23.01
2018-06-25T12:43:21.226Z,23.10
2018-06-25T12:44:21.110Z,23.15
2018-06-25T12:45:21.092Z,23.05
2018-06-25T12:46:21.084Z,22.94
2018-06-25T12:47:21.008Z,22.85
2018-06-25T12:48:21.030Z,22.86
2018-06-25T12:49:20.944Z,22.97
2018-06-25T12:50:20.920Z,22.67
2018-06-25T12:51:20.886Z,22.39
2018-06-25T12:52:20.881Z,22.51